createdAt,value
2023-04-02T00:01:16.479Z,54.18
2023-04-02T00:03:43.717Z,54.22
2023-04-02T00:06:34.836Z,54.28
2023-04-02T00:09:13.594Z,54.24
2023-04-02T00:11:49.198Z,54.47
2023-04-02T00:14:22.967Z,54.53
2023-04-02T00:16:51.321Z,54.30
2023-04-02T00:19:38.592Z,54.29
2023-04-02T00:22:09.660Z,54.36
2023-04-02T00:24:39.507Z,54.21
2023-04-02T00:27:10.357Z,54.26
2023-04-02T00:29:36.827Z,53.99
2023-04-02T00:32:03.418Z,54.13
2023-04-02T00:34:37.670Z,54.12
2023-04-02T00:37:04.485Z,54.28
2023-04-02T00:39:38.683Z,54.15
2023-04-02T00:42:05.234Z,54.26
2023-04-02T00:44:37.879Z,54.33
2023-04-02T00:47:17.502Z,54.22
2023-04-02T00:49:44.136Z,54.05
2023-04-02T00:52:14.458Z,54.20
2023-04-02T00:54:49.500Z,54.30
2023-04-02T00:57:21.756Z,54.15
2023-04-02T01:00:09.843Z,54.00
2023-04-02T01:02:40.864Z,54.07
2023-04-02T01:05:16.700Z,54.04
2023-04-02T01:08:04.419Z,54.14
2023-04-02T01:10:46.136Z,53.96
2023-04-02T01:13:23.933Z,54.13
2023-04-02T01:16:19.388Z,54.15
2023-04-02T01:19:18.249Z,54.24
2023-04-02T01:21:55.393Z,54.19
2023-04-02T01:24:27.058Z,54.29
2023-04-02T01:26:57.927Z,54.14
2023-04-02T01:29:38.265Z,54.58
2023-04-02T01:32:09.161Z,54.35
2023-04-02T01:34:36.434Z,54.24
2023-04-02T01:37:27.301Z,54.47
2023-04-02T01:40:18.711Z,54.42
2023-04-02T01:42:58.239Z,54.56
2023-04-02T01:45:25.210Z,54.27
2023-04-02T01:47:52.074Z,54.43
2023-04-02T01:50:21.923Z,54.57
2023-04-02T01:52:51.375Z,54.36
2023-04-02T01:55:25.788Z,54.43
2023-04-02T01:57:54.238Z,54.54
2023-04-02T02:00:22.424Z,54.10
2023-04-02T02:02:49.888Z,54.28
2023-04-02T02:05:20.209Z,54.13
2023-04-02T02:07:47.027Z,54.10
2023-04-02T02:10:22.599Z,53.85
2023-04-02T02:12:50.783Z,53.86
2023-04-02T02:15:19.418Z,54.17
2023-04-02T02:17:46.018Z,53.84
2023-04-02T02:20:13.780Z,53.78
2023-04-02T02:22:45.200Z,53.83
2023-04-02T02:25:16.481Z,53.94
2023-04-02T02:27:54.305Z,53.77
2023-04-02T02:30:36.092Z,53.74
2023-04-02T02:33:06.874Z,53.74
2023-04-02T02:35:41.014Z,53.81
2023-04-02T02:38:28.333Z,53.83
2023-04-02T02:41:00.759Z,53.56
2023-04-02T02:43:28.170Z,53.56
2023-04-02T02:45:57.461Z,53.43
2023-04-02T02:48:36.620Z,53.50
2023-04-02T02:51:10.606Z,53.50
2023-04-02T02:53:47.394Z,53.33
2023-04-02T02:56:14.298Z,53.39
2023-04-02T02:58:41.253Z,53.29
2023-04-02T03:01:08.007Z,53.24
2023-04-02T03:03:35.181Z,53.22
2023-04-02T03:06:10.130Z,53.18
2023-04-02T03:08:43.442Z,53.23
2023-04-02T03:11:23.940Z,53.17
2023-04-02T03:13:54.490Z,53.14
2023-04-02T03:16:28.665Z,52.94
2023-04-02T03:19:05.860Z,53.05
2023-04-02T03:22:03.061Z,52.90
2023-04-02T03:24:39.665Z,52.97
2023-04-02T03:27:09.003Z,52.79
2023-04-02T03:29:41.313Z,52.83
2023-04-02T03:32:16.527Z,52.72
2023-04-02T03:34:49.724Z,53.00
2023-04-02T03:37:24.057Z,52.85
2023-04-02T03:39:53.495Z,52.83
2023-04-02T03:42:56.515Z,52.93
2023-04-02T03:45:27.077Z,52.72
2023-04-02T03:48:07.445Z,52.72
2023-04-02T03:50:36.498Z,52.87
2023-04-02T03:53:04.391Z,52.62
2023-04-02T03:55:37.083Z,52.44
2023-04-02T03:58:25.336Z,52.65
2023-04-02T04:00:51.725Z,52.55
2023-04-02T04:03:38.769Z,52.44
2023-04-02T04:06:10.633Z,52.39
2023-04-02T04:08:57.055Z,52.36
2023-04-02T04:11:34.861Z,52.63
2023-04-02T04:14:10.332Z,52.21
2023-04-02T04:17:15.718Z,52.34
2023-04-02T04:20:02.752Z,52.37
2023-04-02T04:22:30.426Z,52.03
2023-04-02T04:24:58.629Z,52.08
2023-04-02T04:27:33.799Z,52.54
2023-04-02T04:30:05.844Z,51.90
2023-04-02T04:32:38.977Z,51.73
2023-04-02T04:35:21.442Z,51.82
2023-04-02T04:37:53.540Z,51.75
2023-04-02T04:40:24.999Z,51.17
2023-04-02T04:42:58.105Z,51.19
2023-04-02T04:45:47.687Z,51.46
2023-04-02T04:48:39.086Z,51.06
2023-04-02T04:51:10.255Z,51.19
2023-04-02T04:53:49.718Z,51.28
2023-04-02T04:56:21.533Z,50.97
2023-04-02T04:59:12.714Z,50.96
2023-04-02T05:01:48.136Z,50.96
2023-04-02T05:04:24.859Z,50.73
2023-04-02T05:07:10.845Z,50.24
2023-04-02T05:09:42.187Z,49.04
2023-04-02T05:12:44.410Z,49.11
2023-04-02T05:15:30.115Z,48.52
2023-04-02T05:18:11.612Z,48.13
2023-04-02T05:20:54.723Z,47.65
2023-04-02T05:23:27.245Z,47.17
2023-04-02T05:26:19.081Z,47.12
2023-04-02T05:29:01.039Z,46.53
2023-04-02T05:31:43.720Z,46.39
2023-04-02T05:34:12.311Z,45.60
2023-04-02T05:36:39.627Z,45.38
2023-04-02T05:39:11.039Z,44.71
2023-04-02T05:41:43.947Z,44.12
2023-04-02T05:44:26.311Z,43.30
2023-04-02T05:47:25.201Z,43.54
2023-04-02T05:50:08.535Z,42.76
2023-04-02T05:52:40.795Z,42.51
2023-04-02T05:55:13.163Z,42.17
2023-04-02T05:57:51.264Z,41.86
2023-04-02T06:00:40.843Z,42.05
2023-04-02T06:03:33.643Z,41.35
2023-04-02T06:06:08.151Z,41.06
2023-04-02T06:08:42.961Z,41.31
2023-04-02T06:11:18.927Z,40.59
2023-04-02T06:13:45.633Z,40.46
2023-04-02T06:16:15.688Z,39.86
2023-04-02T06:18:43.673Z,40.36
2023-04-02T06:21:12.302Z,41.49
2023-04-02T06:23:56.961Z,40.41
2023-04-02T06:26:39.833Z,40.11
2023-04-02T06:29:27.778Z,39.02
2023-04-02T06:31:58.513Z,38.52
2023-04-02T06:34:27.874Z,38.63
2023-04-02T06:37:17.331Z,39.10
2023-04-02T06:39:43.876Z,38.62
2023-04-02T06:42:24.822Z,39.03
2023-04-02T06:44:51.699Z,37.97
2023-04-02T06:47:35.006Z,38.07
2023-04-02T06:50:18.742Z,37.63
2023-04-02T06:52:56.464Z,37.71
2023-04-02T06:55:51.054Z,38.25
2023-04-02T06:58:19.060Z,37.39
2023-04-02T07:00:47.253Z,38.91
2023-04-02T07:03:32.661Z,37.80
2023-04-02T07:06:02.182Z,37.01
2023-04-02T07:08:28.666Z,36.92
2023-04-02T07:10:56.259Z,36.96
2023-04-02T07:13:24.307Z,36.60
2023-04-02T07:15:53.217Z,36.77
2023-04-02T07:18:33.932Z,36.91
2023-04-02T07:21:00.786Z,36.44
2023-04-02T07:23:27.298Z,36.69
2023-04-02T07:25:55.388Z,36.10
2023-04-02T07:28:22.889Z,36.31
2023-04-02T07:30:50.622Z,36.25
2023-04-02T07:33:19.535Z,36.31
2023-04-02T07:35:46.717Z,35.88
2023-04-02T07:38:13.238Z,35.83
2023-04-02T07:40:40.156Z,35.72
2023-04-02T07:43:06.851Z,36.12
2023-04-02T07:45:33.685Z,36.04
2023-04-02T07:48:12.327Z,36.39
2023-04-02T07:50:38.854Z,36.18
2023-04-02T07:53:07.153Z,36.09
2023-04-02T07:55:33.837Z,36.36
2023-04-02T07:58:00.692Z,36.55
2023-04-02T08:00:28.930Z,36.51
2023-04-02T08:02:56.124Z,36.66
2023-04-02T08:05:23.087Z,36.70
2023-04-02T08:07:55.495Z,36.88
2023-04-02T08:10:22.555Z,36.88
2023-04-02T08:12:49.659Z,37.21
2023-04-02T08:15:17.230Z,37.52
2023-04-02T08:17:43.945Z,37.28
2023-04-02T08:20:22.399Z,37.56
2023-04-02T08:22:49.804Z,37.25
2023-04-02T08:25:16.788Z,37.35
2023-04-02T08:27:43.370Z,37.59
2023-04-02T08:30:12.677Z,37.36
2023-04-02T08:32:41.194Z,37.12
2023-04-02T08:35:10.031Z,36.94
2023-04-02T08:37:37.240Z,36.78
2023-04-02T08:40:04.961Z,35.92
2023-04-02T08:42:44.019Z,36.34
2023-04-02T08:45:32.314Z,36.00
2023-04-02T08:48:00.014Z,36.05
2023-04-02T08:50:41.377Z,36.45
2023-04-02T08:53:19.784Z,36.13
2023-04-02T08:55:47.905Z,35.55
2023-04-02T08:58:41.750Z,35.91
2023-04-02T09:01:19.922Z,35.83
2023-04-02T09:03:49.527Z,35.76
2023-04-02T09:06:19.042Z,35.71
2023-04-02T09:08:48.807Z,35.70
2023-04-02T09:11:27.488Z,36.07
2023-04-02T09:14:00.201Z,36.05
2023-04-02T09:16:49.620Z,35.89
2023-04-02T09:19:26.385Z,35.62
2023-04-02T09:22:07.688Z,35.51
2023-04-02T09:24:35.389Z,35.10
2023-04-02T09:27:01.952Z,35.29
2023-04-02T09:29:40.163Z,34.89
2023-04-02T09:32:23.074Z,35.37
2023-04-02T09:34:49.609Z,34.73
2023-04-02T09:37:25.454Z,35.08
2023-04-02T09:39:51.914Z,34.59
2023-04-02T09:42:36.274Z,34.75
2023-04-02T09:45:21.336Z,35.69
2023-04-02T09:47:48.936Z,34.74
2023-04-02T09:50:21.364Z,34.87
2023-04-02T09:52:49.396Z,34.98
2023-04-02T09:55:16.093Z,35.31
2023-04-02T09:57:43.270Z,35.34
2023-04-02T10:00:32.554Z,36.03
2023-04-02T10:03:01.586Z,36.09
2023-04-02T10:05:40.126Z,36.96
2023-04-02T10:08:17.164Z,36.32
2023-04-02T10:10:48.261Z,36.48
2023-04-02T10:13:35.660Z,36.65
2023-04-02T10:16:17.649Z,36.81
2023-04-02T10:18:59.160Z,36.83
2023-04-02T10:21:30.282Z,36.74
2023-04-02T10:23:59.360Z,36.88
2023-04-02T10:38:14.571Z,63.48
2023-04-02T10:41:09.024Z,57.04
2023-04-02T10:52:27.803Z,54.51
2023-04-02T10:55:05.356Z,56.20
2023-04-02T10:57:35.204Z,59.47
2023-04-02T11:00:18.274Z,60.44
2023-04-02T11:02:57.365Z,62.67
2023-04-02T11:05:40.325Z,62.79
2023-04-02T11:08:10.223Z,62.06
2023-04-02T11:10:40.352Z,60.81
2023-04-02T11:13:20.474Z,57.69
2023-04-02T11:15:47.055Z,58.51
2023-04-02T11:18:42.770Z,59.48
2023-04-02T11:21:42.334Z,58.23
2023-04-02T12:00:49.076Z,53.97
2023-04-02T12:03:40.147Z,55.90
2023-04-02T12:06:16.238Z,55.67
2023-04-02T12:08:57.875Z,55.95
2023-04-02T12:11:34.162Z,55.46
2023-04-02T12:14:01.667Z,54.09
2023-04-02T12:16:33.224Z,57.25
2023-04-02T12:19:01.137Z,55.11
2023-04-02T12:21:29.447Z,55.97
2023-04-02T12:23:58.511Z,55.84
2023-04-02T12:26:30.101Z,56.24
2023-04-02T12:29:22.061Z,55.21
2023-04-02T12:31:49.343Z,54.82
2023-04-02T12:34:18.355Z,53.85
2023-04-02T12:37:22.675Z,54.62
2023-04-02T12:39:55.146Z,54.31
2023-04-02T12:42:30.930Z,54.96
2023-04-02T12:44:57.669Z,53.65
2023-04-02T12:47:25.093Z,53.97
2023-04-02T12:49:52.417Z,56.75
2023-04-02T12:52:22.617Z,54.16
2023-04-02T12:54:54.427Z,53.30
2023-04-02T12:57:30.184Z,55.12
2023-04-02T12:59:59.917Z,53.56
2023-04-02T13:02:33.209Z,54.83
2023-04-02T13:05:02.278Z,55.95
2023-04-02T13:07:32.109Z,52.82
2023-04-02T13:10:25.675Z,53.89
2023-04-02T13:12:57.814Z,51.15
2023-04-02T13:15:28.775Z,53.68
2023-04-02T13:18:17.948Z,53.20
2023-04-02T13:20:56.784Z,53.24
2023-04-02T13:23:29.307Z,52.85
2023-04-02T13:25:58.425Z,52.67
2023-04-02T13:28:25.021Z,51.92
2023-04-02T13:30:51.858Z,51.92
2023-04-02T13:33:18.826Z,51.44
2023-04-02T13:35:45.493Z,51.46
2023-04-02T13:38:12.075Z,52.62
2023-04-02T13:40:39.203Z,51.52
2023-04-02T13:43:07.355Z,51.18
2023-04-02T13:45:39.009Z,51.06
2023-04-02T13:48:06.523Z,52.23
2023-04-02T13:50:34.966Z,51.68
2023-04-02T13:53:08.998Z,51.47
2023-04-02T13:55:39.881Z,52.25
2023-04-02T13:58:06.612Z,50.09
2023-04-02T14:00:36.060Z,50.40
2023-04-02T14:03:08.102Z,49.46
2023-04-02T14:05:48.183Z,51.06
2023-04-02T14:08:33.071Z,50.15
2023-04-02T14:10:59.515Z,49.35
2023-04-02T14:13:57.386Z,49.49
2023-04-02T14:16:45.728Z,50.08
2023-04-02T14:19:40.584Z,50.94
2023-04-02T14:22:25.366Z,50.75
2023-04-02T14:25:03.892Z,48.91
2023-04-02T14:28:02.008Z,50.47
2023-04-02T14:30:34.368Z,52.63
2023-04-02T14:33:21.265Z,50.46
2023-04-02T14:35:52.350Z,51.51
2023-04-02T14:38:37.366Z,49.72
2023-04-02T14:41:17.384Z,50.34
2023-04-02T14:43:46.454Z,49.93
2023-04-02T14:46:13.040Z,49.12
2023-04-02T14:48:54.212Z,49.00
2023-04-02T14:51:27.306Z,49.67
2023-04-02T14:54:34.505Z,50.33
2023-04-02T14:57:32.793Z,47.87
2023-04-02T15:00:20.999Z,49.96
2023-04-02T15:02:55.916Z,49.73
2023-04-02T15:05:38.023Z,50.24
2023-04-02T15:08:18.070Z,49.26
2023-04-02T15:11:10.339Z,49.75
2023-04-02T15:13:49.711Z,49.62
2023-04-02T15:16:23.190Z,49.09
2023-04-02T15:18:52.042Z,48.05
2023-04-02T15:21:29.425Z,49.16
2023-04-02T15:24:10.690Z,49.10
2023-04-02T15:27:02.033Z,49.19
2023-04-02T15:29:55.655Z,47.58
2023-04-02T15:32:34.426Z,49.53
2023-04-02T15:35:18.854Z,48.55
2023-04-02T15:38:06.502Z,49.22
2023-04-02T15:40:44.680Z,48.83
2023-04-02T15:43:23.955Z,48.78
2023-04-02T15:46:47.868Z,48.87
2023-04-02T15:49:20.401Z,49.36
2023-04-02T15:52:05.854Z,48.86
2023-04-02T15:55:06.676Z,48.11
2023-04-02T15:58:29.243Z,49.83
2023-04-02T16:01:05.188Z,50.92
2023-04-02T16:03:56.749Z,50.98
2023-04-02T16:06:50.688Z,50.68
2023-04-02T16:09:58.591Z,50.86
2023-04-02T16:12:27.444Z,49.99
2023-04-02T16:14:59.644Z,51.16
2023-04-02T16:17:37.000Z,50.87
2023-04-02T16:20:14.367Z,51.58
2023-04-02T16:22:57.253Z,51.31
2023-04-02T16:25:31.432Z,51.34
2023-04-02T16:28:03.685Z,50.90
2023-04-02T16:30:41.467Z,51.89
2023-04-02T16:33:42.680Z,52.19
2023-04-02T16:36:22.033Z,52.99
2023-04-02T16:38:57.066Z,53.91
2023-04-02T16:41:41.745Z,53.93
2023-04-02T16:44:39.227Z,54.35
2023-04-02T16:47:11.648Z,55.17
2023-04-02T16:50:01.125Z,55.13
2023-04-02T16:53:17.253Z,54.51
2023-04-02T16:56:21.430Z,55.53
2023-04-02T16:59:06.864Z,55.51
2023-04-02T17:02:05.196Z,56.08
2023-04-02T17:05:00.915Z,56.46
2023-04-02T17:07:31.329Z,57.10
2023-04-02T17:10:20.978Z,56.50
2023-04-02T17:13:29.996Z,56.97
2023-04-02T17:16:21.931Z,56.54
2023-04-02T17:18:52.331Z,57.08
2023-04-02T17:21:22.707Z,58.03
2023-04-02T17:24:11.710Z,58.15
2023-04-02T17:26:38.573Z,58.83
2023-04-02T17:29:14.708Z,58.54
2023-04-02T17:31:43.742Z,58.42
2023-04-02T17:34:16.218Z,58.07
2023-04-02T17:37:16.465Z,57.86
2023-04-02T17:39:59.515Z,58.12
2023-04-02T17:43:02.234Z,58.98
2023-04-02T17:45:51.842Z,60.26
2023-04-02T17:48:29.780Z,61.05
2023-04-02T17:51:11.357Z,60.51
2023-04-02T17:53:47.363Z,60.63
2023-04-02T17:56:29.106Z,61.02
2023-04-02T17:59:23.859Z,60.28
2023-04-02T18:02:46.890Z,60.56
2023-04-02T18:05:20.344Z,61.55
2023-04-02T18:08:12.502Z,61.83
2023-04-02T18:11:05.493Z,61.31
2023-04-02T18:13:40.271Z,61.82
2023-04-02T18:16:23.074Z,61.82
2023-04-02T18:18:57.461Z,62.43
2023-04-02T18:21:46.678Z,62.49
2023-04-02T18:24:46.313Z,62.67
2023-04-02T18:27:50.000Z,62.77
2023-04-02T18:30:27.516Z,62.87
2023-04-02T18:33:11.137Z,62.34
2023-04-02T18:35:59.700Z,62.94
2023-04-02T18:39:15.608Z,62.69
2023-04-02T18:41:44.895Z,62.88
2023-04-02T18:44:31.409Z,63.22
2023-04-02T18:47:23.900Z,63.16
2023-04-02T18:50:10.720Z,63.06
2023-04-02T18:52:38.531Z,63.63
2023-04-02T18:55:13.461Z,63.58
2023-04-02T18:57:42.994Z,63.73
2023-04-02T19:00:09.677Z,64.27
2023-04-02T19:02:43.000Z,63.86
2023-04-02T19:05:28.318Z,63.92
2023-04-02T19:08:02.774Z,64.28
2023-04-02T19:10:33.409Z,63.99
2023-04-02T19:13:00.666Z,64.90
2023-04-02T19:15:43.565Z,64.56
2023-04-02T19:18:39.930Z,64.40
2023-04-02T19:21:25.980Z,63.91
2023-04-02T19:24:20.669Z,64.27
2023-04-02T19:26:59.056Z,64.53
2023-04-02T19:29:39.804Z,64.29
2023-04-02T19:32:09.784Z,64.36
2023-04-02T19:35:11.476Z,64.02
2023-04-02T19:37:57.906Z,64.59
2023-04-02T19:40:29.699Z,65.45
2023-04-02T19:42:57.067Z,65.32
2023-04-02T19:45:32.128Z,65.66
2023-04-02T19:48:02.465Z,66.16
2023-04-02T19:50:29.778Z,66.12
2023-04-02T19:52:56.380Z,66.49
2023-04-02T19:55:22.905Z,66.77
2023-04-02T19:57:49.802Z,66.88
2023-04-02T20:00:16.867Z,66.53
2023-04-02T20:02:43.417Z,67.16
2023-04-02T20:05:10.419Z,66.92
2023-04-02T20:07:37.208Z,67.24
2023-04-02T20:10:03.894Z,67.43
2023-04-02T20:12:30.409Z,68.18
2023-04-02T20:14:56.841Z,67.99
2023-04-02T20:17:23.389Z,67.84
2023-04-02T20:19:49.837Z,68.03
2023-04-02T20:22:16.531Z,67.91
2023-04-02T20:24:42.992Z,67.91
2023-04-02T20:27:09.466Z,68.19
2023-04-02T20:29:35.994Z,68.65
2023-04-02T20:32:02.656Z,68.47
2023-04-02T20:34:29.501Z,68.79
2023-04-02T20:36:56.072Z,67.94
2023-04-02T20:39:22.508Z,68.19
2023-04-02T20:41:48.954Z,68.11
2023-04-02T20:44:15.847Z,68.40
2023-04-02T20:46:42.609Z,67.99
2023-04-02T20:49:09.098Z,68.18
2023-04-02T20:51:35.648Z,67.93
2023-04-02T20:54:02.159Z,68.20
2023-04-02T20:56:29.427Z,68.19
2023-04-02T20:58:55.912Z,68.28
2023-04-02T21:01:24.578Z,68.78
2023-04-02T21:03:59.295Z,68.35
2023-04-02T21:06:31.497Z,68.41
2023-04-02T21:08:58.440Z,68.56
2023-04-02T21:11:26.278Z,68.61
2023-04-02T21:13:53.215Z,69.01
2023-04-02T21:16:32.091Z,68.75
2023-04-02T21:19:02.118Z,68.92
2023-04-02T21:21:29.570Z,68.72
2023-04-02T21:24:01.618Z,69.00
2023-04-02T21:26:31.888Z,68.57
2023-04-02T21:28:59.883Z,68.70
2023-04-02T21:31:29.357Z,69.08
2023-04-02T21:33:57.663Z,68.95
2023-04-02T21:36:27.210Z,69.23
2023-04-02T21:38:57.354Z,68.97
2023-04-02T21:41:29.869Z,69.39
2023-04-02T21:43:57.950Z,69.02
2023-04-02T21:46:26.939Z,69.15
2023-04-02T21:48:55.261Z,69.79
2023-04-02T21:51:24.392Z,69.64
2023-04-02T21:53:51.149Z,69.57
2023-04-02T21:56:19.579Z,69.30
2023-04-02T21:58:47.384Z,69.63
2023-04-02T22:01:26.940Z,69.78
2023-04-02T22:03:55.697Z,69.93
2023-04-02T22:06:23.794Z,69.98
2023-04-02T22:09:01.962Z,70.18
2023-04-02T22:11:31.915Z,70.46
2023-04-02T22:13:59.122Z,70.37
2023-04-02T22:16:28.821Z,70.66
2023-04-02T22:18:58.521Z,70.49
2023-04-02T22:21:26.049Z,70.87
2023-04-02T22:23:52.850Z,71.07
2023-04-02T22:26:20.840Z,71.01
2023-04-02T22:28:47.559Z,71.12
2023-04-02T22:31:20.553Z,71.44
2023-04-02T22:33:48.149Z,71.48
2023-04-02T22:36:16.213Z,71.27
2023-04-02T22:38:43.352Z,71.71
2023-04-02T22:41:12.874Z,71.15
2023-04-02T22:43:41.103Z,71.38
2023-04-02T22:46:09.375Z,71.72
2023-04-02T22:48:36.375Z,72.10
2023-04-02T22:51:03.353Z,71.47
2023-04-02T22:53:30.632Z,72.00
2023-04-02T22:56:03.065Z,71.79
2023-04-02T22:58:29.818Z,72.15
2023-04-02T23:00:56.253Z,72.59
2023-04-02T23:03:22.735Z,72.35
2023-04-02T23:06:11.039Z,72.38
2023-04-02T23:08:38.690Z,72.47
2023-04-02T23:11:10.113Z,72.32
2023-04-02T23:13:37.826Z,72.76
2023-04-02T23:16:07.013Z,72.84
2023-04-02T23:18:35.608Z,72.71
2023-04-02T23:21:02.693Z,72.40
2023-04-02T23:23:29.380Z,72.28
2023-04-02T23:26:22.885Z,72.22
2023-04-02T23:28:50.513Z,72.39
2023-04-02T23:31:20.468Z,72.69
2023-04-02T23:33:47.277Z,72.52
2023-04-02T23:36:18.641Z,71.93
2023-04-02T23:38:45.279Z,71.92
2023-04-02T23:41:16.885Z,72.09
2023-04-02T23:43:43.834Z,71.79
2023-04-02T23:46:10.743Z,72.02
2023-04-02T23:48:37.393Z,72.26
2023-04-02T23:51:04.520Z,72.26
2023-04-02T23:53:31.128Z,71.80
2023-04-02T23:55:57.694Z,72.10
2023-04-02T23:58:24.213Z,71.94
